Shantou, China
Current Conditions -  °F | °C
As of 12:00 AM on Sunday 21 Dec 2014 (Local Time) from ZGOW Reporting Station
Clear Clear  
Wind Chill: 50°   Ceiling: Unl
Heat Index: 50°   Visibility: 4mi
Dew Point: 48°   Wind: 4mph
Humidity: 94%   Direction: 10°N
Pressure: 30.18"   Gusts: NA
Location:  23.37°N, 116.67°E
Report Text: ZGOW 201600Z 01002MPS 340V040 6000 NSC 10/09 Q1022 NOSIG
Loading
Personal Weather Stations






























Interactive Weather Map New forecast layout! Learn more

10-Day Weather Forecast

Advertisements
Track Severe Weather on mobile